KRNC/RNC METAR and TAF weather

Enter ICAO airport designator
Station Type Date Time Source
KRNC METAR 2022/06/30 14:15 UTC NOAA

KRNC 301415Z AUTO 24004KT 10SM CLR 27/21 A3022 RMK A01


Station Type Date Time Source
KRNC Decoded METAR 2022/06/30 14:15 UTC NOAA

Station name not available
Jun 30, 2022 - 10:15 AM EDT / 2022.06.30 1415 UTC
Wind: from the WSW (240 degrees) at 5 MPH (4 KT):0
Visibility: 10 mile(s):0
Sky conditions: clear
Temperature: 80 F (27 C)
Dew Point: 69 F (21 C)
Relative Humidity: 69%
Pressure (altimeter): 30.22 in. Hg (1023 hPa)
ob: KRNC 301415Z AUTO 24004KT 10SM CLR 27/21 A3022 RMK A01
cycle: 14

Station Type Date Time Source
KRNC TAF 2009/08/31 19:45 UTC NOAA

METAR KRNC 311945Z AUTO 35008KT 10SM CLR 25/12 A3011
RMK AO1 T02500116 $

Example: see airport list